Terminal Aerodrome Forecast
Issued by NWS

Home | Current Version | Previous Version | Graphics & Text | Print | Product List | Glossary On
Versions: 1 2 3 4 5 6 7 8 9 10 11 12 13 14 15 16 17 18 19 20 21 22 23 24 25 26 27 28
308
FTUS45 KGGW 231130
TAFOLF
TAF
KOLF 231130Z 2312/2412 VRB03KT 6SM BR OVC050
     FM231500 04004KT 3SM BR SCT012 OVC020
     FM232200 06008KT P6SM SCT012 OVC035=

USA.gov is the U.S. government's official web portal to all federal, state and local government web resources and services.